ENTC/TOS METAR and TAF weather

Enter ICAO airport designator
Station Type Date Time Source
ENTC METAR 2021/03/03 02:20 UTC NOAA

ENTC 030220Z 22008KT 170V260 9999 FEW005 SCT016 BKN049 M02/M04 Q1004 RMK WIND 2600FT 27015KT


Station Type Date Time Source
ENTC Decoded METAR 2021/03/03 02:20 UTC NOAA

Tromso / Langnes, Norway (ENTC) 69-41N 018-55E 10M
Mar 02, 2021 - 09:20 PM EST / 2021.03.03 0220 UTC
Wind: from the SW (220 degrees) at 9 MPH (8 KT) (direction variable):0
Visibility: greater than 7 mile(s):0
Sky conditions: mostly cloudy
Temperature: 28 F (-2 C)
Windchill: 19 F (-7 C):1
Dew Point: 24 F (-4 C)
Relative Humidity: 86%
Pressure (altimeter): 29.65 in. Hg (1004 hPa)
ob: ENTC 030220Z 22008KT 170V260 9999 FEW005 SCT016 BKN049 M02/M04 Q1004 RMK WIND 2600FT 27015KT
cycle: 2

Station Type Date Time Source
ENTC TAF 2021/03/03 01:57 UTC NOAA

TAF TAF
AMD ENTC 0301/0324 26009KT 9999 -SHSN FEW015 BKN025 PROB30
TEMPO 0301/0303 20015G25KT
TEMPO 0301/0306 1000 SHSN VV006
TEMPO 0306/0318 0500 +SHSN VV004
TEMPO 0301/0324 SCT015CB
BECMG 0309/0312 36010KT

Example: see airport list